createdAt,value
2018-08-23T00:01:31.825Z,3.40
2018-08-23T00:04:05.489Z,3.97
2018-08-23T00:06:33.945Z,3.00
2018-08-23T00:09:02.225Z,3.33
2018-08-23T00:11:32.302Z,3.70
2018-08-23T00:14:00.584Z,3.30
2018-08-23T00:16:35.379Z,3.13
2018-08-23T00:19:04.391Z,3.47
2018-08-23T00:21:32.717Z,3.30
2018-08-23T00:24:08.984Z,3.60
2018-08-23T00:26:38.137Z,3.10
2018-08-23T00:29:16.993Z,3.50
2018-08-23T00:31:50.856Z,3.67
2018-08-23T00:34:19.314Z,3.63
2018-08-23T00:36:47.554Z,3.03
2018-08-23T00:39:15.842Z,3.50
2018-08-23T00:41:49.305Z,3.70
2018-08-23T00:44:17.813Z,3.37
2018-08-23T00:46:46.157Z,3.60
2018-08-23T00:49:15.150Z,3.70
2018-08-23T00:51:44.794Z,3.50
2018-08-23T00:54:13.652Z,3.33
2018-08-23T00:56:41.965Z,3.30
2018-08-23T00:59:11.774Z,3.27
2018-08-23T01:01:40.842Z,3.87
2018-08-23T01:04:09.112Z,3.50
2018-08-23T01:06:40.517Z,3.40
2018-08-23T01:09:10.217Z,3.90
2018-08-23T01:11:38.484Z,4.07
2018-08-23T01:14:06.837Z,3.67
2018-08-23T01:16:35.082Z,3.67
2018-08-23T01:19:08.477Z,4.10
2018-08-23T01:21:38.697Z,3.40
2018-08-23T01:24:06.963Z,3.70
2018-08-23T01:26:35.641Z,3.40
2018-08-23T01:29:13.946Z,3.33
2018-08-23T01:31:42.218Z,4.07
2018-08-23T01:34:10.450Z,3.83
2018-08-23T01:36:38.756Z,3.50
2018-08-23T01:39:10.221Z,3.90
2018-08-23T01:41:38.509Z,4.27
2018-08-23T01:44:06.865Z,4.27
2018-08-23T01:46:41.369Z,3.73
2018-08-23T01:49:09.648Z,4.00
2018-08-23T01:51:37.935Z,4.03
2018-08-23T01:54:06.221Z,4.10
2018-08-23T01:56:34.494Z,4.33
2018-08-23T01:59:02.777Z,4.70
2018-08-23T02:01:31.025Z,3.97
2018-08-23T02:03:59.269Z,5.10
2018-08-23T02:06:32.713Z,4.33
2018-08-23T02:09:01.231Z,4.60
2018-08-23T02:11:29.469Z,4.13
2018-08-23T02:13:57.808Z,4.73
2018-08-23T02:16:26.200Z,4.90
2018-08-23T02:18:54.540Z,4.53
2018-08-23T02:21:22.880Z,4.50
2018-08-23T02:23:53.129Z,4.23
2018-08-23T02:26:21.453Z,4.23
2018-08-23T02:28:50.512Z,4.47
2018-08-23T02:31:18.870Z,4.57
2018-08-23T02:33:47.273Z,4.77
2018-08-23T02:36:16.561Z,4.77
2018-08-23T02:38:49.310Z,4.60
2018-08-23T02:41:17.817Z,4.40
2018-08-23T02:43:46.641Z,4.40
2018-08-23T02:46:15.089Z,4.60
2018-08-23T02:48:43.426Z,4.60
2018-08-23T02:51:11.780Z,4.43
2018-08-23T02:53:45.197Z,4.50
2018-08-23T02:56:18.390Z,4.47
2018-08-23T02:58:56.313Z,4.70
2018-08-23T03:01:25.623Z,4.60
2018-08-23T03:04:05.286Z,4.90
2018-08-23T03:06:38.685Z,4.70
2018-08-23T03:09:07.853Z,4.53
2018-08-23T03:11:37.950Z,5.20
2018-08-23T03:14:06.689Z,4.77
2018-08-23T03:16:47.658Z,4.63
2018-08-23T03:19:16.346Z,4.70
2018-08-23T03:21:44.805Z,5.00
2018-08-23T03:24:13.197Z,5.07
2018-08-23T03:26:41.533Z,4.97
2018-08-23T03:29:09.819Z,5.30
2018-08-23T03:31:38.152Z,5.17
2018-08-23T03:34:06.481Z,5.07
2018-08-23T03:36:34.789Z,5.20
2018-08-23T03:39:03.232Z,5.37
2018-08-23T03:41:31.573Z,4.87
2018-08-23T03:43:59.905Z,5.27
2018-08-23T03:46:28.284Z,5.40
2018-08-23T03:49:00.982Z,5.07
2018-08-23T03:51:29.892Z,5.30
2018-08-23T03:54:00.032Z,5.40
2018-08-23T03:56:28.352Z,5.17
2018-08-23T03:58:56.665Z,5.63
2018-08-23T04:01:24.981Z,5.23
2018-08-23T04:03:53.796Z,5.97
2018-08-23T04:06:38.666Z,5.77
2018-08-23T04:09:08.577Z,6.60
2018-08-23T04:11:36.964Z,7.20
2018-08-23T04:14:05.473Z,8.73
2018-08-23T04:16:33.913Z,8.20
2018-08-23T04:19:02.336Z,8.47
2018-08-23T04:21:30.685Z,9.90
2018-08-23T04:24:00.369Z,10.80
2018-08-23T04:26:28.876Z,12.83
2018-08-23T04:28:57.229Z,13.30
2018-08-23T04:31:25.582Z,11.30
2018-08-23T04:33:53.991Z,13.07
2018-08-23T04:36:29.673Z,11.60
2018-08-23T04:39:00.545Z,12.43
2018-08-23T04:41:30.025Z,12.07
2018-08-23T04:44:00.340Z,12.63
2018-08-23T04:46:31.757Z,13.60
2018-08-23T04:49:01.259Z,16.57
2018-08-23T04:51:29.892Z,16.90
2018-08-23T04:53:58.385Z,35.03
2018-08-23T04:56:26.786Z,32.93
2018-08-23T04:58:55.085Z,43.97
2018-08-23T05:01:23.465Z,48.57
2018-08-23T05:03:52.479Z,57.17
2018-08-23T05:06:20.807Z,52.27
2018-08-23T05:08:49.265Z,51.33
2018-08-23T05:11:17.661Z,51.17
2018-08-23T05:13:46.550Z,54.10
2018-08-23T05:16:14.873Z,50.63
2018-08-23T05:18:43.270Z,50.00
2018-08-23T05:21:11.586Z,51.50
2018-08-23T05:23:39.901Z,51.77
2018-08-23T05:26:12.776Z,50.60
2018-08-23T05:28:45.625Z,52.20
2018-08-23T05:31:13.917Z,47.73
2018-08-23T05:33:42.308Z,49.13
2018-08-23T05:36:14.961Z,48.67
2018-08-23T05:38:43.349Z,45.40
2018-08-23T05:41:12.926Z,49.17
2018-08-23T05:43:41.618Z,46.93
2018-08-23T05:46:09.997Z,48.80
2018-08-23T05:48:38.346Z,44.50
2018-08-23T05:51:09.396Z,47.53
2018-08-23T05:53:40.366Z,46.20
2018-08-23T05:56:09.045Z,47.90
2018-08-23T05:58:37.433Z,46.80
2018-08-23T06:01:05.913Z,46.50
2018-08-23T06:03:35.021Z,52.87
2018-08-23T06:06:03.360Z,50.90
2018-08-23T06:08:31.686Z,49.23
2018-08-23T06:11:05.673Z,48.33
2018-08-23T06:13:34.054Z,49.83
2018-08-23T06:16:02.442Z,50.97
2018-08-23T06:18:30.785Z,46.87
2018-08-23T06:20:59.097Z,49.57
2018-08-23T06:24:08.932Z,44.43
2018-08-23T06:26:42.450Z,41.83
2018-08-23T06:29:13.468Z,41.47
2018-08-23T06:31:50.791Z,38.17
2018-08-23T06:34:19.213Z,39.77
2018-08-23T06:36:47.925Z,38.87
2018-08-23T06:39:16.405Z,39.33
2018-08-23T06:41:44.743Z,37.63
2018-08-23T06:44:13.985Z,37.67
2018-08-23T06:46:42.417Z,38.70
2018-08-23T06:49:10.845Z,36.67
2018-08-23T06:51:39.396Z,36.67
2018-08-23T06:54:07.755Z,35.33
2018-08-23T06:56:38.248Z,34.03
2018-08-23T06:59:07.177Z,32.37
2018-08-23T07:01:47.845Z,33.83
2018-08-23T07:04:16.197Z,33.30
2018-08-23T07:06:44.599Z,34.77
2018-08-23T07:09:14.545Z,35.43
2018-08-23T07:11:43.297Z,36.20
2018-08-23T07:14:13.270Z,37.73
2018-08-23T07:16:42.913Z,36.33
2018-08-23T07:19:26.906Z,38.00
2018-08-23T07:21:55.935Z,37.83
2018-08-23T07:24:38.312Z,38.27
2018-08-23T07:27:08.677Z,38.63
2018-08-23T07:29:37.053Z,38.40
2018-08-23T07:32:07.124Z,38.63
2018-08-23T07:34:35.724Z,40.30
2018-08-23T07:37:08.141Z,36.80
2018-08-23T07:39:36.643Z,38.83
2018-08-23T07:42:05.194Z,40.00
2018-08-23T07:44:33.558Z,41.37
2018-08-23T07:47:01.929Z,39.00
2018-08-23T07:49:30.273Z,41.67
2018-08-23T07:51:58.653Z,40.67
2018-08-23T07:54:27.176Z,41.23
2018-08-23T07:56:55.504Z,39.67
2018-08-23T07:59:23.925Z,37.80
2018-08-23T08:01:52.285Z,38.93
2018-08-23T08:04:20.637Z,36.80
2018-08-23T08:06:49.016Z,37.10
2018-08-23T08:09:25.098Z,34.20
2018-08-23T08:11:58.952Z,36.63
2018-08-23T08:14:34.170Z,34.63
2018-08-23T08:17:13.659Z,33.30
2018-08-23T08:19:46.315Z,31.83
2018-08-23T08:22:14.837Z,33.47
2018-08-23T08:24:43.357Z,34.03
2018-08-23T08:27:11.743Z,32.63
2018-08-23T08:29:40.309Z,32.47
2018-08-23T08:32:10.497Z,30.43
2018-08-23T08:34:43.185Z,30.27
2018-08-23T08:37:11.526Z,29.77
2018-08-23T08:39:39.997Z,29.57
2018-08-23T08:42:08.353Z,28.73
2018-08-23T08:44:36.922Z,30.83
2018-08-23T08:47:05.273Z,29.70
2018-08-23T08:49:34.616Z,30.80
2018-08-23T08:52:03.013Z,27.37
2018-08-23T08:54:31.343Z,23.80
2018-08-23T08:56:59.720Z,24.70
2018-08-23T08:59:32.026Z,27.67
2018-08-23T09:02:00.711Z,28.13
2018-08-23T09:04:35.023Z,27.53
2018-08-23T09:07:03.364Z,28.57
2018-08-23T09:09:35.520Z,31.80
2018-08-23T09:12:07.188Z,29.67
2018-08-23T09:14:36.297Z,31.80
2018-08-23T09:17:21.576Z,30.33
2018-08-23T09:20:03.926Z,30.50
2018-08-23T09:22:37.665Z,29.10
2018-08-23T09:25:17.910Z,30.67
2018-08-23T09:27:47.846Z,26.43
2018-08-23T09:30:21.737Z,28.90
2018-08-23T09:32:50.128Z,26.00
2018-08-23T09:35:18.744Z,23.45
2018-08-23T09:37:48.837Z,21.20
2018-08-23T09:40:17.209Z,20.82
2018-08-23T09:42:45.535Z,19.67
2018-08-23T09:45:18.633Z,21.35
2018-08-23T09:47:47.029Z,19.52
2018-08-23T09:50:15.472Z,19.73
2018-08-23T09:52:45.911Z,20.60
2018-08-23T09:55:15.517Z,22.20
2018-08-23T09:57:44.293Z,21.45
2018-08-23T10:00:14.396Z,20.90
2018-08-23T10:02:48.033Z,22.60
2018-08-23T10:05:21.786Z,22.48
2018-08-23T10:07:55.505Z,22.90
2018-08-23T10:10:29.184Z,21.20
2018-08-23T10:13:02.963Z,19.55
2018-08-23T10:15:36.582Z,20.82
2018-08-23T10:18:10.354Z,19.60
2018-08-23T10:20:45.093Z,17.85
2018-08-23T10:23:14.835Z,17.92
2018-08-23T10:25:45.381Z,20.30
2018-08-23T10:28:14.964Z,18.12
2018-08-23T10:30:43.692Z,19.30
2018-08-23T10:33:12.097Z,19.45
2018-08-23T10:35:46.365Z,18.70
2018-08-23T10:38:16.572Z,15.65
2018-08-23T10:40:45.818Z,17.37
2018-08-23T10:43:14.522Z,19.77
2018-08-23T10:45:43.362Z,20.00
2018-08-23T10:48:18.945Z,20.00
2018-08-23T10:50:48.488Z,17.90
2018-08-23T10:53:17.400Z,21.05
2018-08-23T10:55:45.978Z,19.45
2018-08-23T10:58:14.369Z,19.57
2018-08-23T11:00:42.889Z,19.92
2018-08-23T11:03:11.213Z,20.60
2018-08-23T11:05:39.577Z,23.15
2018-08-23T11:08:13.330Z,20.32
2018-08-23T11:10:47.037Z,20.43
2018-08-23T11:13:20.750Z,20.72
2018-08-23T11:15:49.109Z,19.17
2018-08-23T11:18:22.858Z,18.12
2018-08-23T11:20:51.389Z,18.82
2018-08-23T11:23:25.558Z,19.57
2018-08-23T11:25:53.995Z,16.00
2018-08-23T11:28:23.721Z,15.78
2018-08-23T11:30:52.623Z,14.95
2018-08-23T11:33:20.978Z,18.30
2018-08-23T11:35:49.310Z,18.82
2018-08-23T11:38:17.645Z,20.57
2018-08-23T11:40:46.074Z,21.12
2018-08-23T11:43:14.430Z,22.00
2018-08-23T11:45:42.808Z,22.52
2018-08-23T11:48:11.188Z,21.52
2018-08-23T11:50:39.533Z,23.42
2018-08-23T11:53:08.069Z,21.90
2018-08-23T11:55:36.338Z,22.13
2018-08-23T11:58:04.718Z,21.07
2018-08-23T12:00:33.033Z,18.12
2018-08-23T12:03:01.613Z,17.40
2018-08-23T12:05:30.073Z,17.10
2018-08-23T12:07:58.542Z,15.98
2018-08-23T12:10:26.981Z,19.57
2018-08-23T12:12:55.417Z,16.35
2018-08-23T12:15:30.813Z,18.52
2018-08-23T12:17:59.562Z,18.32
2018-08-23T12:20:27.916Z,18.10
2018-08-23T12:22:56.275Z,16.20
2018-08-23T12:25:24.714Z,17.55
2018-08-23T12:27:56.491Z,15.95
2018-08-23T12:30:24.927Z,17.55
2018-08-23T12:32:53.372Z,16.42
2018-08-23T12:35:21.810Z,19.25
2018-08-23T12:38:02.789Z,19.37
2018-08-23T12:40:37.090Z,16.23
2018-08-23T12:43:11.726Z,18.00
2018-08-23T12:45:43.074Z,17.95
2018-08-23T12:48:12.474Z,17.82
2018-08-23T12:50:41.833Z,20.08
2018-08-23T12:53:10.290Z,19.90
2018-08-23T12:55:38.753Z,18.87
2018-08-23T12:58:13.534Z,21.02
2018-08-23T13:00:42.735Z,19.25
2018-08-23T13:03:11.116Z,17.15
2018-08-23T13:05:39.756Z,17.02
2018-08-23T13:08:08.163Z,16.77
2018-08-23T13:10:36.999Z,14.70
2018-08-23T13:13:05.859Z,16.52
2018-08-23T13:15:34.219Z,17.05
2018-08-23T13:18:03.177Z,16.07
2018-08-23T13:20:31.600Z,14.93
2018-08-23T13:22:59.976Z,15.38
2018-08-23T13:25:28.326Z,17.62
2018-08-23T13:27:56.753Z,17.57
2018-08-23T13:30:25.142Z,15.55
2018-08-23T13:32:53.468Z,15.70
2018-08-23T13:35:21.893Z,14.28
2018-08-23T13:37:50.194Z,16.15
2018-08-23T13:40:19.598Z,15.93
2018-08-23T13:42:48.590Z,14.87
2018-08-23T13:45:17.249Z,11.90
2018-08-23T13:47:45.577Z,12.58
2018-08-23T13:50:13.925Z,13.25
2018-08-23T13:52:42.348Z,13.88
2018-08-23T13:55:10.743Z,13.10
2018-08-23T13:57:39.095Z,12.65
2018-08-23T14:00:07.521Z,13.62
2018-08-23T14:02:36.099Z,12.20
2018-08-23T14:05:04.506Z,11.88
2018-08-23T14:07:32.862Z,12.47
2018-08-23T14:10:01.436Z,11.68
2018-08-23T14:12:30.386Z,11.68
2018-08-23T14:14:58.797Z,10.93
2018-08-23T14:17:27.457Z,10.32
2018-08-23T14:19:56.262Z,10.78
2018-08-23T14:22:24.617Z,9.80
2018-08-23T14:24:52.953Z,13.28
2018-08-23T14:27:21.509Z,12.23
2018-08-23T14:29:49.817Z,13.25
2018-08-23T14:32:18.190Z,10.38
2018-08-23T14:34:46.491Z,9.98
2018-08-23T14:37:14.837Z,11.53
2018-08-23T14:39:43.254Z,11.35
2018-08-23T14:42:11.596Z,11.28
2018-08-23T14:44:40.013Z,10.65
2018-08-23T14:47:13.917Z,12.50
2018-08-23T14:49:42.285Z,12.88
2018-08-23T14:52:10.687Z,13.60
2018-08-23T14:54:41.898Z,12.65
2018-08-23T14:57:45.965Z,12.18
2018-08-23T15:00:14.268Z,16.97
2018-08-23T15:02:42.621Z,16.65
2018-08-23T15:05:11.336Z,13.60
2018-08-23T15:07:39.776Z,15.63
2018-08-23T15:10:08.109Z,15.60
2018-08-23T15:12:36.510Z,16.40
2018-08-23T15:15:07.853Z,14.13
2018-08-23T15:17:36.379Z,14.68
2018-08-23T15:20:04.814Z,15.23
2018-08-23T15:22:33.219Z,13.28
2018-08-23T15:25:01.567Z,13.45
2018-08-23T15:27:32.682Z,14.55
2018-08-23T15:30:01.899Z,13.32
2018-08-23T15:32:30.259Z,13.48
2018-08-23T15:34:58.584Z,11.15
2018-08-23T15:37:27.086Z,11.63
2018-08-23T15:39:55.412Z,9.95
2018-08-23T15:42:23.749Z,9.70
2018-08-23T15:44:52.077Z,12.23
2018-08-23T15:47:20.440Z,11.08
2018-08-23T15:49:48.969Z,9.30
2018-08-23T15:52:17.512Z,10.53
2018-08-23T15:54:45.923Z,9.83
2018-08-23T15:57:14.277Z,9.75
2018-08-23T15:59:42.630Z,10.72
2018-08-23T16:02:10.956Z,10.58
2018-08-23T16:04:39.378Z,9.85
2018-08-23T16:07:07.745Z,9.98
2018-08-23T16:09:36.073Z,12.73
2018-08-23T16:12:04.574Z,11.63
2018-08-23T16:14:32.956Z,11.83
2018-08-23T16:17:06.565Z,14.18
2018-08-23T16:19:40.343Z,14.20
2018-08-23T16:22:08.714Z,12.63
2018-08-23T16:24:37.154Z,17.07
2018-08-23T16:27:06.254Z,17.02
2018-08-23T16:29:34.705Z,16.80
2018-08-23T16:32:03.125Z,17.73
2018-08-23T16:34:31.541Z,17.90
2018-08-23T16:37:00.714Z,17.02
2018-08-23T16:39:29.142Z,14.60
2018-08-23T16:41:57.475Z,13.50
2018-08-23T16:44:25.891Z,13.88
2018-08-23T16:46:54.245Z,12.23
2018-08-23T16:49:22.760Z,13.30
2018-08-23T16:51:51.105Z,11.22
2018-08-23T16:54:19.445Z,11.05
2018-08-23T16:56:47.811Z,12.58
2018-08-23T16:59:16.207Z,13.38
2018-08-23T17:01:44.601Z,12.85
2018-08-23T17:04:13.075Z,13.80
2018-08-23T17:06:41.365Z,12.20
2018-08-23T17:09:09.682Z,13.57
2018-08-23T17:11:38.080Z,13.70
2018-08-23T17:14:06.679Z,14.70
2018-08-23T17:16:40.332Z,15.13
2018-08-23T17:19:08.800Z,12.77
2018-08-23T17:21:37.325Z,11.93
2018-08-23T17:24:05.653Z,12.23
2018-08-23T17:26:34.097Z,13.10
2018-08-23T17:29:02.437Z,14.00
2018-08-23T17:31:30.810Z,13.87
2018-08-23T17:33:59.193Z,14.95
2018-08-23T17:36:27.610Z,12.85
2018-08-23T17:38:55.937Z,15.40
2018-08-23T17:41:24.463Z,12.70
2018-08-23T17:43:52.777Z,13.93
2018-08-23T17:46:21.114Z,14.93
2018-08-23T17:48:49.452Z,14.30
2018-08-23T17:51:17.795Z,14.87
2018-08-23T17:53:46.107Z,12.83
2018-08-23T17:56:14.447Z,13.20
2018-08-23T17:58:42.777Z,13.03
2018-08-23T18:01:11.127Z,12.23
2018-08-23T18:03:39.629Z,12.87
2018-08-23T18:06:08.393Z,15.10
2018-08-23T18:08:36.773Z,12.87
2018-08-23T18:11:05.693Z,12.93
2018-08-23T18:13:34.060Z,12.07
2018-08-23T18:16:07.629Z,12.23
2018-08-23T18:18:36.077Z,13.23
2018-08-23T18:21:04.574Z,12.07
2018-08-23T18:23:32.936Z,12.33
2018-08-23T18:26:01.373Z,11.87
2018-08-23T18:28:29.748Z,11.27
2018-08-23T18:30:58.099Z,11.47
2018-08-23T18:33:26.690Z,10.53
2018-08-23T18:35:54.993Z,11.00
2018-08-23T18:38:23.330Z,11.43
2018-08-23T18:40:51.693Z,10.87
2018-08-23T18:43:20.120Z,10.80
2018-08-23T18:45:48.552Z,10.37
2018-08-23T18:48:16.907Z,11.20
2018-08-23T18:50:45.277Z,9.90
2018-08-23T18:53:13.618Z,10.20
2018-08-23T18:55:42.034Z,10.83
2018-08-23T18:58:10.449Z,10.70
2018-08-23T19:00:38.929Z,12.03
2018-08-23T19:03:07.261Z,11.17
2018-08-23T19:05:35.985Z,13.00
2018-08-23T19:08:04.345Z,11.63
2018-08-23T19:10:32.705Z,12.03
2018-08-23T19:13:01.235Z,11.60
2018-08-23T19:15:34.873Z,11.80
2018-08-23T19:18:03.453Z,11.47
2018-08-23T19:20:31.836Z,11.03
2018-08-23T19:23:00.316Z,11.47
2018-08-23T19:25:29.615Z,11.57
2018-08-23T19:27:57.933Z,11.77
2018-08-23T19:30:26.393Z,11.47
2018-08-23T19:32:54.859Z,11.50
2018-08-23T19:35:23.571Z,11.87
2018-08-23T19:37:51.870Z,12.80
2018-08-23T19:40:20.235Z,12.90
2018-08-23T19:42:48.637Z,12.00
2018-08-23T19:45:17.038Z,11.93
2018-08-23T19:47:50.729Z,11.33
2018-08-23T19:50:19.104Z,12.33
2018-08-23T19:52:47.594Z,12.27
2018-08-23T19:55:15.917Z,12.97
2018-08-23T19:57:44.264Z,12.77
2018-08-23T20:00:12.590Z,12.00
2018-08-23T20:02:41.148Z,12.80
2018-08-23T20:05:09.590Z,11.27
2018-08-23T20:07:37.870Z,11.40
2018-08-23T20:10:06.756Z,12.40
2018-08-23T20:12:35.260Z,12.87
2018-08-23T20:15:03.577Z,12.13
2018-08-23T20:17:31.927Z,12.37
2018-08-23T20:20:00.334Z,12.70
2018-08-23T20:22:28.958Z,12.77
2018-08-23T20:24:57.412Z,12.87
2018-08-23T20:27:25.785Z,12.40
2018-08-23T20:29:54.154Z,13.50
2018-08-23T20:32:22.570Z,12.73
2018-08-23T20:34:50.897Z,12.53
2018-08-23T20:37:19.216Z,13.13
2018-08-23T20:39:47.652Z,14.07
2018-08-23T20:42:15.945Z,13.50
2018-08-23T20:44:44.276Z,13.57
2018-08-23T20:47:12.690Z,14.03
2018-08-23T20:49:41.120Z,14.30
2018-08-23T20:52:09.406Z,13.87
2018-08-23T20:54:37.763Z,14.07
2018-08-23T20:57:06.162Z,13.97
2018-08-23T20:59:34.481Z,14.37
2018-08-23T21:02:03.402Z,15.03
2018-08-23T21:04:31.752Z,14.00
2018-08-23T21:07:00.247Z,15.07
2018-08-23T21:09:28.737Z,14.57
2018-08-23T21:11:57.052Z,14.87
2018-08-23T21:14:25.390Z,15.20
2018-08-23T21:16:53.749Z,15.23
2018-08-23T21:19:22.137Z,15.23
2018-08-23T21:21:50.483Z,14.20
2018-08-23T21:24:18.911Z,15.93
2018-08-23T21:26:47.241Z,14.60
2018-08-23T21:29:15.588Z,15.50
2018-08-23T21:31:43.940Z,16.10
2018-08-23T21:34:12.301Z,16.10
2018-08-23T21:36:40.636Z,15.43
2018-08-23T21:39:09.672Z,15.00
2018-08-23T21:41:44.825Z,14.57
2018-08-23T21:44:13.220Z,14.90
2018-08-23T21:46:41.572Z,14.77
2018-08-23T21:49:09.976Z,14.50
2018-08-23T21:51:38.502Z,14.80
2018-08-23T21:54:06.997Z,14.57
2018-08-23T21:56:35.313Z,14.97
2018-08-23T21:59:04.001Z,13.80
2018-08-23T22:01:32.333Z,15.30
2018-08-23T22:04:00.655Z,15.20
2018-08-23T22:06:29.133Z,15.13
2018-08-23T22:08:57.713Z,14.70
2018-08-23T22:11:26.144Z,15.30
2018-08-23T22:13:54.455Z,15.47
2018-08-23T22:16:22.813Z,14.53
2018-08-23T22:18:51.266Z,14.60
2018-08-23T22:21:19.626Z,13.80
2018-08-23T22:23:48.141Z,14.93
2018-08-23T22:26:16.483Z,14.40
2018-08-23T22:28:44.828Z,15.27
2018-08-23T22:31:13.213Z,13.83
2018-08-23T22:33:41.603Z,14.33
2018-08-23T22:36:09.967Z,13.77
2018-08-23T22:38:38.345Z,14.17
2018-08-23T22:41:06.678Z,14.40
2018-08-23T22:43:35.033Z,14.73
2018-08-23T22:46:03.404Z,14.23
2018-08-23T22:48:31.760Z,15.43
2018-08-23T22:51:00.117Z,13.73
2018-08-23T22:53:28.520Z,14.40
2018-08-23T22:55:56.849Z,13.30
2018-08-23T22:58:25.272Z,13.07
2018-08-23T23:00:53.576Z,12.30
2018-08-23T23:03:27.184Z,12.87
2018-08-23T23:05:55.586Z,12.93
2018-08-23T23:08:23.984Z,12.10
2018-08-23T23:10:52.348Z,13.50
2018-08-23T23:13:20.768Z,13.70
2018-08-23T23:15:49.120Z,14.03
2018-08-23T23:18:17.529Z,13.10
2018-08-23T23:20:45.884Z,12.40
2018-08-23T23:23:14.264Z,12.73
2018-08-23T23:25:42.606Z,14.20
2018-08-23T23:28:10.940Z,14.00
2018-08-23T23:30:39.407Z,14.70
2018-08-23T23:33:07.822Z,14.80
2018-08-23T23:35:36.162Z,15.60
2018-08-23T23:38:04.480Z,13.37
2018-08-23T23:40:32.836Z,15.57
2018-08-23T23:43:01.160Z,16.37
2018-08-23T23:45:29.507Z,14.53
2018-08-23T23:47:57.843Z,14.63
2018-08-23T23:50:26.245Z,17.40
2018-08-23T23:52:54.646Z,15.70
2018-08-23T23:55:23.004Z,16.17
2018-08-23T23:57:51.341Z,16.70
